createdAt,value
2019-03-19T00:01:04.107Z,12.80
2019-03-19T00:03:34.797Z,14.87
2019-03-19T00:06:05.789Z,11.23
2019-03-19T00:08:36.479Z,10.63
2019-03-19T00:11:07.345Z,18.30
2019-03-19T00:13:38.442Z,17.00
2019-03-19T00:16:09.454Z,12.60
2019-03-19T00:18:40.899Z,9.17
2019-03-19T00:21:11.555Z,14.57
2019-03-19T00:23:42.379Z,12.17
2019-03-19T00:26:13.018Z,13.33
2019-03-19T00:28:43.619Z,14.07
2019-03-19T00:31:14.256Z,10.83
2019-03-19T00:33:45.606Z,11.53
2019-03-19T00:36:17.517Z,12.27
2019-03-19T00:38:48.400Z,17.17
2019-03-19T00:41:19.075Z,12.50
2019-03-19T00:43:49.833Z,17.23
2019-03-19T00:46:20.462Z,11.80
2019-03-19T00:48:51.095Z,12.87
2019-03-19T00:51:21.740Z,17.50
2019-03-19T00:53:52.367Z,11.83
2019-03-19T00:56:22.991Z,20.87
2019-03-19T00:58:53.651Z,17.70
2019-03-19T01:01:24.314Z,13.60
2019-03-19T01:03:55.202Z,12.13
2019-03-19T01:06:25.818Z,9.50
2019-03-19T01:08:56.534Z,9.70
2019-03-19T01:11:27.166Z,14.97
2019-03-19T01:13:57.829Z,15.60
2019-03-19T01:16:28.465Z,18.67
2019-03-19T01:18:59.148Z,13.77
2019-03-19T01:21:30.042Z,17.27
2019-03-19T01:24:00.730Z,14.23
2019-03-19T01:26:31.402Z,13.63
2019-03-19T01:29:02.103Z,12.90
2019-03-19T01:31:33.960Z,10.40
2019-03-19T01:34:04.584Z,16.03
2019-03-19T01:36:35.201Z,16.60
2019-03-19T01:39:07.347Z,16.00
2019-03-19T01:41:37.981Z,14.53
2019-03-19T01:44:08.638Z,16.53
2019-03-19T01:46:39.350Z,14.47
2019-03-19T01:49:10.098Z,14.67
2019-03-19T01:51:41.895Z,18.20
2019-03-19T01:54:12.831Z,20.23
2019-03-19T01:56:43.460Z,17.17
2019-03-19T01:59:14.596Z,10.70
2019-03-19T02:01:45.261Z,18.47
2019-03-19T02:04:15.938Z,16.03
2019-03-19T02:06:46.610Z,12.87
2019-03-19T02:09:17.304Z,14.83
2019-03-19T02:11:48.003Z,15.73
2019-03-19T02:14:18.629Z,24.10
2019-03-19T02:16:49.308Z,17.10
2019-03-19T02:19:19.935Z,15.30
2019-03-19T02:21:50.615Z,19.10
2019-03-19T02:24:21.323Z,20.13
2019-03-19T02:26:51.970Z,18.00
2019-03-19T02:29:22.637Z,18.57
2019-03-19T02:31:53.276Z,20.57
2019-03-19T02:34:23.905Z,15.03
2019-03-19T02:36:54.612Z,15.50
2019-03-19T02:39:25.258Z,14.00
2019-03-19T02:41:55.895Z,16.90
2019-03-19T02:44:26.517Z,17.30
2019-03-19T02:46:57.204Z,13.30
2019-03-19T02:49:27.916Z,17.53
2019-03-19T02:51:58.533Z,21.53
2019-03-19T02:54:29.167Z,14.80
2019-03-19T02:56:59.799Z,15.80
2019-03-19T02:59:30.541Z,13.60
2019-03-19T03:02:01.123Z,13.67
2019-03-19T03:04:32.352Z,27.07
2019-03-19T03:07:03.095Z,11.57
2019-03-19T03:09:33.755Z,16.83
2019-03-19T03:12:04.467Z,18.60
2019-03-19T03:14:35.169Z,17.20
2019-03-19T03:17:05.926Z,22.20
2019-03-19T03:19:37.041Z,14.37
2019-03-19T03:22:07.679Z,18.03
2019-03-19T03:24:38.706Z,20.43
2019-03-19T03:27:09.365Z,13.07
2019-03-19T03:29:39.999Z,13.47
2019-03-19T03:32:10.617Z,14.93
2019-03-19T03:34:41.235Z,18.40
2019-03-19T03:37:11.893Z,19.53
2019-03-19T03:39:43.360Z,16.57
2019-03-19T03:42:14.090Z,20.00
2019-03-19T03:44:44.961Z,19.87
2019-03-19T03:47:15.716Z,9.00
2019-03-19T03:49:46.402Z,20.03
2019-03-19T03:52:17.342Z,19.27
2019-03-19T03:54:47.971Z,16.83
2019-03-19T03:57:19.061Z,19.13
2019-03-19T03:59:49.892Z,15.07
2019-03-19T04:02:21.017Z,18.97
2019-03-19T04:04:51.741Z,21.47
2019-03-19T04:07:22.515Z,13.50
2019-03-19T04:09:53.199Z,15.90
2019-03-19T04:12:23.929Z,15.33
2019-03-19T04:14:54.516Z,24.43
2019-03-19T04:17:25.205Z,23.67
2019-03-19T04:19:55.797Z,15.50
2019-03-19T04:22:26.557Z,52.03
2019-03-19T04:24:57.204Z,148.93
2019-03-19T04:27:27.914Z,116.33
2019-03-19T04:29:58.549Z,156.13
2019-03-19T04:32:29.159Z,267.43
2019-03-19T04:34:59.814Z,96.13
2019-03-19T04:37:31.524Z,83.57
2019-03-19T04:40:02.173Z,64.03
2019-03-19T04:42:32.774Z,45.57
2019-03-19T04:45:03.437Z,59.33
2019-03-19T04:47:34.146Z,42.93
2019-03-19T04:50:05.658Z,25.60
2019-03-19T04:52:37.118Z,19.13
2019-03-19T04:55:08.563Z,20.17
2019-03-19T04:57:40.977Z,20.43
2019-03-19T05:00:12.154Z,23.13
2019-03-19T05:02:42.846Z,16.87
2019-03-19T05:05:14.125Z,22.77
2019-03-19T05:07:44.862Z,22.13
2019-03-19T05:10:16.645Z,13.83
2019-03-19T05:12:47.321Z,20.80
2019-03-19T05:15:18.513Z,16.33
2019-03-19T05:17:49.285Z,17.93
2019-03-19T05:20:20.701Z,18.00
2019-03-19T05:22:51.492Z,17.20
2019-03-19T05:25:22.145Z,19.77
2019-03-19T05:27:52.768Z,19.10
2019-03-19T05:30:24.306Z,16.03
2019-03-19T05:32:55.460Z,18.50
2019-03-19T05:35:26.618Z,15.30
2019-03-19T05:37:57.781Z,22.57
2019-03-19T05:40:28.725Z,17.80
2019-03-19T05:43:01.999Z,23.73
2019-03-19T05:45:33.648Z,23.60
2019-03-19T05:48:05.426Z,22.93
2019-03-19T05:50:38.248Z,15.93
2019-03-19T05:53:08.925Z,15.10
2019-03-19T05:55:40.464Z,22.93
2019-03-19T05:58:11.170Z,20.93
2019-03-19T06:00:43.549Z,21.60
2019-03-19T06:03:14.170Z,24.03
2019-03-19T06:05:46.804Z,17.57
2019-03-19T06:08:20.676Z,13.13
2019-03-19T06:10:51.962Z,18.30
2019-03-19T06:13:23.204Z,18.93
2019-03-19T06:15:53.898Z,11.30
2019-03-19T06:18:34.704Z,19.17
2019-03-19T06:20:57.207Z,17.77
2019-03-19T06:23:28.384Z,16.90
2019-03-19T06:25:59.185Z,21.30
2019-03-19T06:28:29.883Z,14.93
2019-03-19T06:31:00.734Z,9.27
2019-03-19T06:33:31.729Z,12.63
2019-03-19T06:36:02.942Z,17.77
2019-03-19T06:38:34.046Z,19.60
2019-03-19T06:41:05.127Z,14.17
2019-03-19T06:43:36.781Z,14.00
2019-03-19T06:46:07.557Z,20.13
2019-03-19T06:48:39.044Z,18.73
2019-03-19T06:51:10.641Z,13.47
2019-03-19T06:53:43.842Z,16.77
2019-03-19T06:56:15.355Z,21.03
2019-03-19T06:58:46.198Z,17.17
2019-03-19T07:01:17.536Z,19.33
2019-03-19T07:03:48.470Z,16.83
2019-03-19T07:06:19.222Z,16.97
2019-03-19T07:08:50.018Z,16.00
2019-03-19T07:11:21.012Z,20.47
2019-03-19T07:13:51.827Z,20.23
2019-03-19T07:16:22.971Z,16.13
2019-03-19T07:18:53.898Z,13.60
2019-03-19T07:21:24.970Z,17.53
2019-03-19T07:23:56.585Z,15.67
2019-03-19T07:26:27.343Z,14.13
2019-03-19T07:28:57.992Z,11.13
2019-03-19T07:31:31.066Z,11.57
2019-03-19T07:34:02.112Z,20.00
2019-03-19T07:36:33.148Z,15.40
2019-03-19T07:39:05.226Z,19.60
2019-03-19T07:41:36.748Z,18.00
2019-03-19T07:44:07.963Z,20.40
2019-03-19T07:46:41.763Z,20.30
2019-03-19T07:49:14.568Z,19.83
2019-03-19T07:51:45.866Z,20.17
2019-03-19T07:54:16.621Z,18.43
2019-03-19T07:56:47.308Z,18.43
2019-03-19T07:59:21.466Z,18.50
2019-03-19T08:01:52.280Z,19.90
2019-03-19T08:04:23.188Z,27.10
2019-03-19T08:06:53.931Z,19.73
2019-03-19T08:09:25.120Z,36.03
2019-03-19T08:11:55.978Z,17.30
2019-03-19T08:14:27.331Z,17.70
2019-03-19T08:16:58.153Z,16.03
2019-03-19T08:19:29.457Z,18.17
2019-03-19T08:22:00.311Z,16.60
2019-03-19T08:24:30.960Z,17.97
2019-03-19T08:27:01.870Z,18.00
2019-03-19T08:29:34.656Z,19.43
2019-03-19T08:32:04.906Z,18.77
2019-03-19T08:34:36.462Z,21.47
2019-03-19T08:37:07.188Z,21.87
2019-03-19T08:39:38.740Z,24.57
2019-03-19T08:42:10.804Z,16.13
2019-03-19T08:44:41.627Z,21.80
2019-03-19T08:47:12.314Z,17.27
2019-03-19T08:49:43.114Z,20.70
2019-03-19T08:52:15.366Z,16.40
2019-03-19T08:54:46.143Z,22.37
2019-03-19T08:57:16.910Z,14.27
2019-03-19T08:59:47.772Z,13.90
2019-03-19T09:02:18.540Z,25.90
2019-03-19T09:04:49.312Z,17.97
2019-03-19T09:07:20.236Z,18.67
2019-03-19T09:09:50.970Z,20.43
2019-03-19T09:12:21.686Z,18.17
2019-03-19T09:14:52.735Z,19.80
2019-03-19T09:17:23.585Z,21.73
2019-03-19T09:19:54.353Z,22.93
2019-03-19T09:22:29.614Z,21.73
2019-03-19T09:24:57.655Z,16.93
2019-03-19T09:27:28.413Z,15.97
2019-03-19T09:29:59.284Z,23.57
2019-03-19T09:32:30.059Z,19.17
2019-03-19T09:35:00.868Z,21.67
2019-03-19T09:37:31.622Z,16.40
2019-03-19T09:40:02.442Z,16.20
2019-03-19T09:42:33.210Z,20.93
2019-03-19T09:45:05.321Z,11.53
2019-03-19T09:47:38.447Z,19.27
2019-03-19T09:50:10.500Z,16.03
2019-03-19T09:52:41.820Z,13.57
2019-03-19T09:55:13.173Z,14.43
2019-03-19T09:57:45.010Z,17.90
2019-03-19T10:00:18.495Z,18.33
2019-03-19T10:02:49.209Z,15.57
2019-03-19T10:05:19.973Z,13.77
2019-03-19T10:07:50.655Z,18.67
2019-03-19T10:10:21.563Z,15.07
2019-03-19T10:12:52.274Z,12.10
2019-03-19T10:15:22.998Z,21.30
2019-03-19T10:17:53.780Z,13.33
2019-03-19T10:20:24.530Z,14.10
2019-03-19T10:22:55.223Z,12.20
2019-03-19T10:25:25.882Z,13.90
2019-03-19T10:27:56.528Z,19.23
2019-03-19T10:30:27.330Z,19.53
2019-03-19T10:32:58.021Z,23.93
2019-03-19T10:35:28.664Z,16.03
2019-03-19T10:38:00.091Z,17.37
2019-03-19T10:40:30.814Z,12.97
2019-03-19T10:43:02.477Z,18.77
2019-03-19T10:45:33.149Z,16.90
2019-03-19T10:48:04.375Z,19.87
2019-03-19T10:50:35.059Z,17.07
2019-03-19T10:53:05.823Z,13.70
2019-03-19T10:55:36.842Z,21.30
2019-03-19T10:58:11.187Z,11.67
2019-03-19T11:00:41.578Z,15.33
2019-03-19T11:03:12.234Z,13.77
2019-03-19T11:05:42.881Z,13.60
2019-03-19T11:08:13.556Z,12.63
2019-03-19T11:10:45.460Z,13.73
2019-03-19T11:13:16.629Z,11.03
2019-03-19T11:15:48.240Z,11.80
2019-03-19T11:18:18.868Z,15.30
2019-03-19T11:20:50.295Z,15.07
2019-03-19T11:23:20.965Z,16.07
2019-03-19T11:25:54.719Z,15.57
2019-03-19T11:28:24.481Z,16.03
2019-03-19T11:30:55.395Z,12.30
2019-03-19T11:33:26.118Z,13.87
2019-03-19T11:35:56.795Z,18.17
2019-03-19T11:38:27.450Z,10.77
2019-03-19T11:40:58.087Z,11.03
2019-03-19T11:43:28.846Z,9.63
2019-03-19T11:45:59.585Z,10.83
2019-03-19T11:48:30.307Z,8.97
2019-03-19T11:51:00.967Z,10.63
2019-03-19T11:53:31.672Z,9.77
2019-03-19T11:56:02.291Z,11.83
2019-03-19T11:58:32.997Z,14.47
2019-03-19T12:01:03.878Z,16.70
2019-03-19T12:03:34.588Z,8.30
2019-03-19T12:06:05.848Z,10.73
2019-03-19T12:08:36.529Z,13.27
2019-03-19T12:11:07.176Z,8.80
2019-03-19T12:13:39.096Z,7.63
2019-03-19T12:16:10.246Z,10.03
2019-03-19T12:18:41.675Z,7.33
2019-03-19T12:21:12.372Z,14.03
2019-03-19T12:23:42.993Z,10.57
2019-03-19T12:26:13.670Z,10.13
2019-03-19T12:28:44.459Z,9.50
2019-03-19T12:31:15.944Z,10.10
2019-03-19T12:33:46.602Z,15.97
2019-03-19T12:36:17.259Z,9.53
2019-03-19T12:38:49.292Z,14.23
2019-03-19T12:41:19.986Z,12.43
2019-03-19T12:43:51.441Z,7.70
2019-03-19T12:46:22.038Z,10.23
2019-03-19T12:48:54.382Z,12.57
2019-03-19T12:51:25.277Z,11.93
2019-03-19T12:53:56.478Z,11.57
2019-03-19T12:56:27.103Z,15.50
2019-03-19T12:58:57.771Z,8.50
2019-03-19T13:01:28.850Z,14.90
2019-03-19T13:03:59.795Z,12.37
2019-03-19T13:06:30.449Z,9.43
2019-03-19T13:09:01.527Z,9.03
2019-03-19T13:11:32.776Z,15.93
2019-03-19T13:14:04.006Z,9.37
2019-03-19T13:16:35.260Z,8.63
2019-03-19T13:19:06.960Z,7.90
2019-03-19T13:21:38.874Z,13.23
2019-03-19T13:24:10.124Z,9.37
2019-03-19T13:26:41.106Z,12.33
2019-03-19T13:29:12.601Z,10.60
2019-03-19T13:31:43.647Z,10.93
2019-03-19T13:34:14.611Z,10.87
2019-03-19T13:36:58.451Z,10.87
2019-03-19T13:39:28.762Z,8.53
2019-03-19T13:41:59.461Z,10.73
2019-03-19T13:44:30.084Z,9.13
2019-03-19T13:47:01.108Z,12.07
2019-03-19T13:49:33.118Z,12.23
2019-03-19T13:52:03.821Z,13.23
2019-03-19T13:54:34.481Z,8.87
2019-03-19T13:57:05.447Z,8.97
2019-03-19T13:59:37.094Z,10.70
2019-03-19T14:02:07.830Z,12.07
2019-03-19T14:04:39.794Z,13.17
2019-03-19T14:07:10.453Z,10.17
2019-03-19T14:09:41.753Z,11.57
2019-03-19T14:12:12.402Z,8.80
2019-03-19T14:14:44.492Z,8.57
2019-03-19T14:17:15.157Z,11.30
2019-03-19T14:19:45.862Z,13.77
2019-03-19T14:22:16.516Z,10.10
2019-03-19T14:24:47.282Z,7.70
2019-03-19T14:27:17.948Z,9.30
2019-03-19T14:29:48.636Z,10.67
2019-03-19T14:32:28.867Z,10.10
2019-03-19T14:35:01.414Z,12.63
2019-03-19T14:37:32.286Z,8.70
2019-03-19T14:40:09.731Z,9.10
2019-03-19T14:42:41.768Z,6.97
2019-03-19T14:45:19.706Z,7.93
2019-03-19T14:47:58.861Z,10.10
2019-03-19T14:50:29.486Z,8.93
2019-03-19T14:53:00.906Z,4.90
2019-03-19T14:55:31.572Z,9.10
2019-03-19T14:58:02.599Z,5.50
2019-03-19T15:00:35.393Z,5.40
2019-03-19T15:03:05.679Z,7.43
2019-03-19T15:05:36.609Z,7.00
2019-03-19T15:08:07.310Z,3.87
2019-03-19T15:10:39.230Z,6.83
2019-03-19T15:13:09.870Z,7.03
2019-03-19T15:15:41.387Z,10.37
2019-03-19T15:18:12.099Z,5.90
2019-03-19T15:20:42.865Z,9.33
2019-03-19T15:23:13.529Z,10.97
2019-03-19T15:25:44.289Z,5.97
2019-03-19T15:28:14.986Z,7.40
2019-03-19T15:30:45.718Z,6.43
2019-03-19T15:33:16.420Z,7.23
2019-03-19T15:35:47.066Z,9.07
2019-03-19T15:38:17.701Z,7.97
2019-03-19T15:40:48.388Z,6.93
2019-03-19T15:43:19.031Z,5.73
2019-03-19T15:45:49.698Z,6.63
2019-03-19T15:48:20.487Z,5.30
2019-03-19T15:50:51.328Z,6.50
2019-03-19T15:53:26.276Z,7.20
2019-03-19T15:55:57.244Z,7.77
2019-03-19T15:58:29.667Z,4.83
2019-03-19T16:01:01.253Z,10.30
2019-03-19T16:03:31.340Z,7.27
2019-03-19T16:06:02.223Z,6.07
2019-03-19T16:08:32.203Z,11.77
2019-03-19T16:11:06.288Z,6.60
2019-03-19T16:13:36.749Z,6.93
2019-03-19T16:16:07.555Z,7.53
2019-03-19T16:18:39.150Z,5.57
2019-03-19T16:21:10.433Z,6.13
2019-03-19T16:23:41.362Z,9.73
2019-03-19T16:26:12.011Z,6.80
2019-03-19T16:28:44.639Z,6.80
2019-03-19T16:31:14.851Z,6.97
2019-03-19T16:33:45.227Z,6.20
2019-03-19T16:36:15.311Z,8.20
2019-03-19T16:38:50.433Z,5.50
2019-03-19T16:41:20.700Z,9.03
2019-03-19T16:43:50.797Z,12.73
2019-03-19T16:46:20.863Z,9.97
2019-03-19T16:48:51.237Z,7.97
2019-03-19T16:51:21.364Z,7.63
2019-03-19T16:53:51.478Z,7.87
2019-03-19T16:56:21.670Z,7.97
2019-03-19T16:58:51.758Z,9.60
2019-03-19T17:01:21.886Z,10.40
2019-03-19T17:03:52.029Z,5.97
2019-03-19T17:06:22.750Z,8.17
2019-03-19T17:08:53.385Z,8.77
2019-03-19T17:11:24.192Z,10.70
2019-03-19T17:13:55.000Z,8.37
2019-03-19T17:16:25.659Z,6.20
2019-03-19T17:18:56.475Z,7.37
2019-03-19T17:21:27.275Z,11.20
2019-03-19T17:23:57.936Z,11.17
2019-03-19T17:26:31.467Z,6.70
2019-03-19T17:29:02.266Z,5.63
2019-03-19T17:31:32.953Z,5.03
2019-03-19T17:34:03.728Z,7.33
2019-03-19T17:36:34.544Z,11.10
2019-03-19T17:39:07.341Z,6.40
2019-03-19T17:41:37.449Z,8.73
2019-03-19T17:44:07.989Z,12.73
2019-03-19T17:46:39.927Z,10.53
2019-03-19T17:49:10.936Z,53.93
2019-03-19T17:51:43.092Z,50.30
2019-03-19T17:54:13.856Z,25.03
2019-03-19T17:56:44.699Z,23.33
2019-03-19T17:59:15.490Z,23.03
2019-03-19T18:01:46.685Z,20.90
2019-03-19T18:04:17.544Z,87.23
2019-03-19T18:06:50.086Z,83.63
2019-03-19T18:09:20.796Z,163.53
2019-03-19T18:11:51.523Z,87.50
2019-03-19T18:14:22.268Z,57.93
2019-03-19T18:16:52.973Z,67.30
2019-03-19T18:19:23.807Z,52.27
2019-03-19T18:21:54.530Z,73.63
2019-03-19T18:24:25.321Z,75.73
2019-03-19T18:26:56.051Z,65.53
2019-03-19T18:29:27.031Z,127.47
2019-03-19T18:31:58.627Z,150.13
2019-03-19T18:34:29.354Z,141.17
2019-03-19T18:37:00.078Z,109.33
2019-03-19T18:39:31.416Z,83.27
2019-03-19T18:42:02.592Z,74.07
2019-03-19T18:44:33.581Z,101.83
2019-03-19T18:47:04.237Z,110.57
2019-03-19T18:49:35.010Z,86.57
2019-03-19T18:52:05.761Z,68.47
2019-03-19T18:54:36.538Z,78.07
2019-03-19T18:57:08.301Z,59.47
2019-03-19T18:59:38.959Z,39.40
2019-03-19T19:02:09.683Z,37.17
2019-03-19T19:04:41.326Z,32.77
2019-03-19T19:07:11.944Z,32.77
2019-03-19T19:09:44.100Z,27.20
2019-03-19T19:12:14.760Z,28.77
2019-03-19T19:14:45.530Z,29.37
2019-03-19T19:17:16.841Z,21.87
2019-03-19T19:19:47.736Z,12.37
2019-03-19T19:22:18.754Z,15.60
2019-03-19T19:24:49.526Z,14.23
2019-03-19T19:27:20.762Z,13.60
2019-03-19T19:29:52.262Z,13.90
2019-03-19T19:32:23.606Z,11.03
2019-03-19T19:34:54.405Z,7.70
2019-03-19T19:37:25.055Z,10.83
2019-03-19T19:39:55.750Z,10.87
2019-03-19T19:42:26.418Z,7.87
2019-03-19T19:44:58.394Z,9.20
2019-03-19T19:47:29.257Z,10.53
2019-03-19T19:49:59.940Z,12.67
2019-03-19T19:52:39.977Z,19.20
2019-03-19T19:55:11.725Z,26.50
2019-03-19T19:57:43.906Z,27.13
2019-03-19T20:00:16.975Z,13.70
2019-03-19T20:02:47.826Z,16.30
2019-03-19T20:05:18.829Z,11.57
2019-03-19T20:07:51.953Z,16.10
2019-03-19T20:10:23.009Z,12.67
2019-03-19T20:12:54.272Z,14.80
2019-03-19T20:15:25.504Z,10.03
2019-03-19T20:17:56.232Z,11.23
2019-03-19T20:20:27.580Z,12.60
2019-03-19T20:22:58.980Z,14.00
2019-03-19T20:25:29.646Z,7.63
2019-03-19T20:28:01.389Z,9.80
2019-03-19T20:30:33.493Z,12.10
2019-03-19T20:33:04.554Z,11.93
2019-03-19T20:35:35.340Z,12.67
2019-03-19T20:38:07.310Z,10.27
2019-03-19T20:40:38.496Z,15.93
2019-03-19T20:43:09.468Z,7.83
2019-03-19T20:45:42.430Z,9.23
2019-03-19T20:48:13.117Z,8.97
2019-03-19T20:50:45.757Z,8.90
2019-03-19T20:53:16.149Z,9.40
2019-03-19T20:55:49.839Z,7.83
2019-03-19T20:58:21.691Z,14.93
2019-03-19T21:00:52.409Z,11.83
2019-03-19T21:03:35.271Z,6.93
2019-03-19T21:05:57.757Z,9.20
2019-03-19T21:08:28.536Z,12.33
2019-03-19T21:10:59.297Z,11.77
2019-03-19T21:13:29.946Z,14.97
2019-03-19T21:16:00.567Z,7.77
2019-03-19T21:18:31.234Z,11.57
2019-03-19T21:21:02.179Z,11.77
2019-03-19T21:23:32.814Z,8.60
2019-03-19T21:26:03.453Z,8.77
2019-03-19T21:28:34.187Z,11.63
2019-03-19T21:31:04.805Z,14.43
2019-03-19T21:33:35.468Z,9.20
2019-03-19T21:36:06.161Z,11.10
2019-03-19T21:38:36.917Z,11.30
2019-03-19T21:41:07.577Z,12.17
2019-03-19T21:43:40.368Z,7.13
2019-03-19T21:46:11.027Z,9.77
2019-03-19T21:48:42.793Z,6.97
2019-03-19T21:51:17.570Z,12.47
2019-03-19T21:53:48.253Z,6.10
2019-03-19T21:56:19.403Z,9.57
2019-03-19T21:58:50.010Z,9.20
2019-03-19T22:01:20.697Z,9.80
2019-03-19T22:04:02.373Z,10.83
2019-03-19T22:06:23.833Z,11.57
2019-03-19T22:08:54.426Z,17.77
2019-03-19T22:11:25.538Z,9.50
2019-03-19T22:13:56.246Z,11.37
2019-03-19T22:16:27.665Z,6.83
2019-03-19T22:18:58.281Z,9.20
2019-03-19T22:21:29.562Z,8.93
2019-03-19T22:24:00.210Z,8.50
2019-03-19T22:26:31.923Z,8.00
2019-03-19T22:29:02.561Z,9.67
2019-03-19T22:31:33.639Z,15.57
2019-03-19T22:34:13.708Z,9.23
2019-03-19T22:36:36.621Z,13.10
2019-03-19T22:39:09.931Z,8.43
2019-03-19T22:41:40.638Z,24.23
2019-03-19T22:44:11.301Z,10.40
2019-03-19T22:46:43.138Z,8.37
2019-03-19T22:49:13.865Z,12.30
2019-03-19T22:51:45.551Z,10.27
2019-03-19T22:54:16.224Z,13.37
2019-03-19T22:56:47.020Z,12.50
2019-03-19T22:59:17.694Z,15.60
2019-03-19T23:01:48.420Z,7.77
2019-03-19T23:04:26.946Z,11.33
2019-03-19T23:06:51.529Z,8.27
2019-03-19T23:09:22.249Z,11.37
2019-03-19T23:11:52.884Z,10.33
2019-03-19T23:14:23.665Z,19.77
2019-03-19T23:16:54.290Z,10.57
2019-03-19T23:19:25.019Z,14.37
2019-03-19T23:21:55.955Z,10.97
2019-03-19T23:24:26.656Z,12.13
2019-03-19T23:26:57.277Z,10.03
2019-03-19T23:29:28.114Z,11.60
2019-03-19T23:31:58.858Z,22.43
2019-03-19T23:34:38.152Z,18.87
2019-03-19T23:37:02.355Z,13.03
2019-03-19T23:39:33.605Z,10.53
2019-03-19T23:42:04.242Z,10.77
2019-03-19T23:44:34.948Z,10.17
2019-03-19T23:47:05.577Z,12.53
2019-03-19T23:49:36.216Z,9.17
2019-03-19T23:52:06.906Z,11.13
2019-03-19T23:54:37.746Z,10.40
2019-03-19T23:57:07.641Z,9.70
2019-03-19T23:59:38.266Z,9.23
